sensor_id;sensor_type;location;lat;lon;timestamp;temperature;humidity
65462;DHT22;53236;43.666;18.444;2023-09-19T00:01:08;17.40;99.90
65462;DHT22;53236;43.666;18.444;2023-09-19T00:03:35;17.40;99.90
65462;DHT22;53236;43.666;18.444;2023-09-19T00:06:04;17.40;99.90
65462;DHT22;53236;43.666;18.444;2023-09-19T00:08:32;17.30;99.90
65462;DHT22;53236;43.666;18.444;2023-09-19T00:10:58;17.30;99.90
65462;DHT22;53236;43.666;18.444;2023-09-19T00:13:32;17.30;99.90
65462;DHT22;53236;43.666;18.444;2023-09-19T00:15:57;17.20;99.90
65462;DHT22;53236;43.666;18.444;2023-09-19T00:18:25;17.20;99.90
65462;DHT22;53236;43.666;18.444;2023-09-19T00:21:00;17.30;99.90
65462;DHT22;53236;43.666;18.444;2023-09-19T00:23:27;17.30;99.90
65462;DHT22;53236;43.666;18.444;2023-09-19T00:25:53;17.30;99.90
65462;DHT22;53236;43.666;18.444;2023-09-19T00:28:23;17.20;99.90
65462;DHT22;53236;43.666;18.444;2023-09-19T00:30:48;17.30;99.90
65462;DHT22;53236;43.666;18.444;2023-09-19T00:33:18;17.30;99.90
65462;DHT22;53236;43.666;18.444;2023-09-19T00:35:52;17.30;99.90
65462;DHT22;53236;43.666;18.444;2023-09-19T00:38:20;17.30;99.90
65462;DHT22;53236;43.666;18.444;2023-09-19T00:40:48;17.30;99.90
65462;DHT22;53236;43.666;18.444;2023-09-19T00:43:14;17.30;99.90
65462;DHT22;53236;43.666;18.444;2023-09-19T00:45:45;17.30;99.90
65462;DHT22;53236;43.666;18.444;2023-09-19T00:48:11;17.20;99.90
65462;DHT22;53236;43.666;18.444;2023-09-19T00:50:38;17.30;99.90
65462;DHT22;53236;43.666;18.444;2023-09-19T00:53:08;17.30;99.90
65462;DHT22;53236;43.666;18.444;2023-09-19T00:55:39;17.30;99.90
65462;DHT22;53236;43.666;18.444;2023-09-19T00:58:06;17.30;99.90
65462;DHT22;53236;43.666;18.444;2023-09-19T01:00:33;17.40;99.90
65462;DHT22;53236;43.666;18.444;2023-09-19T01:03:02;17.30;99.90
65462;DHT22;53236;43.666;18.444;2023-09-19T01:05:29;17.20;99.90
65462;DHT22;53236;43.666;18.444;2023-09-19T01:07:55;17.30;99.90
65462;DHT22;53236;43.666;18.444;2023-09-19T01:10:21;17.20;99.90
65462;DHT22;53236;43.666;18.444;2023-09-19T01:13:13;17.20;99.90
65462;DHT22;53236;43.666;18.444;2023-09-19T01:16:26;17.20;99.90
65462;DHT22;53236;43.666;18.444;2023-09-19T01:22:16;17.30;99.90
65462;DHT22;53236;43.666;18.444;2023-09-19T01:30:17;17.20;99.90
65462;DHT22;53236;43.666;18.444;2023-09-19T01:32:45;17.10;99.90
65462;DHT22;53236;43.666;18.444;2023-09-19T01:35:11;17.20;99.90
65462;DHT22;53236;43.666;18.444;2023-09-19T01:37:38;17.20;99.90
65462;DHT22;53236;43.666;18.444;2023-09-19T01:40:10;17.20;99.90
65462;DHT22;53236;43.666;18.444;2023-09-19T01:47:55;17.10;99.90
65462;DHT22;53236;43.666;18.444;2023-09-19T01:50:34;17.10;99.90
65462;DHT22;53236;43.666;18.444;2023-09-19T01:53:27;17.00;99.90
65462;DHT22;53236;43.666;18.444;2023-09-19T01:55:57;17.10;99.90
65462;DHT22;53236;43.666;18.444;2023-09-19T01:58:46;17.00;99.90
65462;DHT22;53236;43.666;18.444;2023-09-19T02:01:19;17.00;99.90
65462;DHT22;53236;43.666;18.444;2023-09-19T02:03:47;16.90;99.90
65462;DHT22;53236;43.666;18.444;2023-09-19T02:06:18;16.80;99.90
65462;DHT22;53236;43.666;18.444;2023-09-19T02:08:45;16.80;99.90
65462;DHT22;53236;43.666;18.444;2023-09-19T02:11:13;16.90;99.90
65462;DHT22;53236;43.666;18.444;2023-09-19T02:13:39;16.80;99.90
65462;DHT22;53236;43.666;18.444;2023-09-19T02:16:06;16.80;99.90
65462;DHT22;53236;43.666;18.444;2023-09-19T02:18:32;16.80;99.90
65462;DHT22;53236;43.666;18.444;2023-09-19T02:21:01;16.80;99.90
65462;DHT22;53236;43.666;18.444;2023-09-19T02:23:27;16.80;99.90
65462;DHT22;53236;43.666;18.444;2023-09-19T02:25:58;16.70;99.90
65462;DHT22;53236;43.666;18.444;2023-09-19T02:28:26;16.80;99.90
65462;DHT22;53236;43.666;18.444;2023-09-19T02:30:56;16.80;99.90
65462;DHT22;53236;43.666;18.444;2023-09-19T02:33:22;16.90;99.90
65462;DHT22;53236;43.666;18.444;2023-09-19T02:35:47;16.80;99.90
65462;DHT22;53236;43.666;18.444;2023-09-19T02:38:14;16.80;99.90
65462;DHT22;53236;43.666;18.444;2023-09-19T02:40:43;16.80;99.90
65462;DHT22;53236;43.666;18.444;2023-09-19T02:43:09;16.90;99.90
65462;DHT22;53236;43.666;18.444;2023-09-19T02:45:35;16.80;99.90
65462;DHT22;53236;43.666;18.444;2023-09-19T02:48:01;16.70;99.90
65462;DHT22;53236;43.666;18.444;2023-09-19T02:50:27;16.80;99.90
65462;DHT22;53236;43.666;18.444;2023-09-19T02:52:53;16.80;99.90
65462;DHT22;53236;43.666;18.444;2023-09-19T02:55:19;16.80;99.90
65462;DHT22;53236;43.666;18.444;2023-09-19T02:57:52;16.90;99.90
65462;DHT22;53236;43.666;18.444;2023-09-19T03:00:21;16.80;99.90
65462;DHT22;53236;43.666;18.444;2023-09-19T03:02:52;16.80;99.90
65462;DHT22;53236;43.666;18.444;2023-09-19T03:05:18;16.70;99.90
65462;DHT22;53236;43.666;18.444;2023-09-19T03:07:44;16.70;99.90
65462;DHT22;53236;43.666;18.444;2023-09-19T03:10:13;16.70;99.90
65462;DHT22;53236;43.666;18.444;2023-09-19T03:12:40;16.60;99.90
65462;DHT22;53236;43.666;18.444;2023-09-19T03:15:06;16.60;99.90
65462;DHT22;53236;43.666;18.444;2023-09-19T03:17:34;16.60;99.90
65462;DHT22;53236;43.666;18.444;2023-09-19T03:20:01;16.50;99.90
65462;DHT22;53236;43.666;18.444;2023-09-19T03:22:27;16.40;99.90
65462;DHT22;53236;43.666;18.444;2023-09-19T03:24:53;16.50;99.90
65462;DHT22;53236;43.666;18.444;2023-09-19T03:27:19;16.50;99.90
65462;DHT22;53236;43.666;18.444;2023-09-19T03:29:49;16.40;99.90
65462;DHT22;53236;43.666;18.444;2023-09-19T03:32:15;16.50;99.90
65462;DHT22;53236;43.666;18.444;2023-09-19T03:34:41;16.50;99.90
65462;DHT22;53236;43.666;18.444;2023-09-19T03:37:09;16.40;99.90
65462;DHT22;53236;43.666;18.444;2023-09-19T03:39:35;16.50;99.90
65462;DHT22;53236;43.666;18.444;2023-09-19T03:42:01;16.50;99.90
65462;DHT22;53236;43.666;18.444;2023-09-19T03:44:30;16.60;99.90
65462;DHT22;53236;43.666;18.444;2023-09-19T03:46:56;16.50;99.90
65462;DHT22;53236;43.666;18.444;2023-09-19T03:49:22;16.50;99.90
65462;DHT22;53236;43.666;18.444;2023-09-19T03:51:48;16.60;99.90
65462;DHT22;53236;43.666;18.444;2023-09-19T03:54:14;16.60;99.90
65462;DHT22;53236;43.666;18.444;2023-09-19T03:56:40;16.60;99.90
65462;DHT22;53236;43.666;18.444;2023-09-19T03:59:05;16.60;99.90
65462;DHT22;53236;43.666;18.444;2023-09-19T04:01:31;16.60;99.90
65462;DHT22;53236;43.666;18.444;2023-09-19T04:03:59;16.50;99.90
65462;DHT22;53236;43.666;18.444;2023-09-19T04:06:33;16.60;99.90
65462;DHT22;53236;43.666;18.444;2023-09-19T04:09:00;16.50;99.90
65462;DHT22;53236;43.666;18.444;2023-09-19T04:11:27;16.50;99.90
65462;DHT22;53236;43.666;18.444;2023-09-19T04:13:52;16.50;99.90
65462;DHT22;53236;43.666;18.444;2023-09-19T04:16:19;16.40;99.90
65462;DHT22;53236;43.666;18.444;2023-09-19T04:18:45;16.30;99.90
65462;DHT22;53236;43.666;18.444;2023-09-19T04:21:11;16.30;99.90
65462;DHT22;53236;43.666;18.444;2023-09-19T04:23:36;16.30;99.90
65462;DHT22;53236;43.666;18.444;2023-09-19T04:26:02;16.20;99.90
65462;DHT22;53236;43.666;18.444;2023-09-19T04:28:31;16.20;99.90
65462;DHT22;53236;43.666;18.444;2023-09-19T04:30:58;16.10;99.90
65462;DHT22;53236;43.666;18.444;2023-09-19T04:33:25;16.00;99.90
65462;DHT22;53236;43.666;18.444;2023-09-19T04:35:52;15.90;99.90
65462;DHT22;53236;43.666;18.444;2023-09-19T04:38:19;15.90;99.90
65462;DHT22;53236;43.666;18.444;2023-09-19T04:40:45;15.90;99.90
65462;DHT22;53236;43.666;18.444;2023-09-19T04:43:11;15.90;99.90
65462;DHT22;53236;43.666;18.444;2023-09-19T04:45:39;15.80;99.90
65462;DHT22;53236;43.666;18.444;2023-09-19T04:48:05;15.80;99.90
65462;DHT22;53236;43.666;18.444;2023-09-19T04:50:34;15.70;99.90
65462;DHT22;53236;43.666;18.444;2023-09-19T04:53:00;15.70;99.90
65462;DHT22;53236;43.666;18.444;2023-09-19T04:55:27;15.70;99.90
65462;DHT22;53236;43.666;18.444;2023-09-19T04:57:53;15.70;99.90
65462;DHT22;53236;43.666;18.444;2023-09-19T05:00:22;15.70;99.90
65462;DHT22;53236;43.666;18.444;2023-09-19T05:02:56;15.80;99.90
65462;DHT22;53236;43.666;18.444;2023-09-19T05:05:22;15.90;99.90
65462;DHT22;53236;43.666;18.444;2023-09-19T05:07:49;16.10;99.90
65462;DHT22;53236;43.666;18.444;2023-09-19T05:10:16;16.20;99.90
65462;DHT22;53236;43.666;18.444;2023-09-19T05:12:44;16.40;99.90
65462;DHT22;53236;43.666;18.444;2023-09-19T05:15:13;16.60;99.90
65462;DHT22;53236;43.666;18.444;2023-09-19T05:17:47;16.90;99.90
65462;DHT22;53236;43.666;18.444;2023-09-19T05:20:13;17.30;99.90
65462;DHT22;53236;43.666;18.444;2023-09-19T05:22:42;18.40;99.90
65462;DHT22;53236;43.666;18.444;2023-09-19T05:25:12;19.40;99.90
65462;DHT22;53236;43.666;18.444;2023-09-19T05:27:42;20.80;99.90
65462;DHT22;53236;43.666;18.444;2023-09-19T05:30:09;22.10;99.90
65462;DHT22;53236;43.666;18.444;2023-09-19T05:32:35;22.90;99.90
65462;DHT22;53236;43.666;18.444;2023-09-19T05:35:01;24.20;96.30
65462;DHT22;53236;43.666;18.444;2023-09-19T05:37:26;25.40;90.40
65462;DHT22;53236;43.666;18.444;2023-09-19T05:39:52;25.70;81.10
65462;DHT22;53236;43.666;18.444;2023-09-19T05:42:21;25.90;78.80
65462;DHT22;53236;43.666;18.444;2023-09-19T05:44:46;25.90;77.20
65462;DHT22;53236;43.666;18.444;2023-09-19T05:47:12;26.60;78.40
65462;DHT22;53236;43.666;18.444;2023-09-19T05:49:38;27.20;74.30
65462;DHT22;53236;43.666;18.444;2023-09-19T05:52:05;25.30;75.50
65462;DHT22;53236;43.666;18.444;2023-09-19T05:54:32;25.80;78.10
65462;DHT22;53236;43.666;18.444;2023-09-19T05:57:00;25.50;77.10
65462;DHT22;53236;43.666;18.444;2023-09-19T05:59:25;25.60;77.80
65462;DHT22;53236;43.666;18.444;2023-09-19T06:01:51;25.40;76.40
65462;DHT22;53236;43.666;18.444;2023-09-19T06:04:17;25.90;77.90
65462;DHT22;53236;43.666;18.444;2023-09-19T06:06:45;26.60;76.90
65462;DHT22;53236;43.666;18.444;2023-09-19T06:09:10;26.60;74.90
65462;DHT22;53236;43.666;18.444;2023-09-19T06:11:36;26.40;77.60
65462;DHT22;53236;43.666;18.444;2023-09-19T06:14:03;26.30;76.90
65462;DHT22;53236;43.666;18.444;2023-09-19T06:16:29;25.10;77.00
65462;DHT22;53236;43.666;18.444;2023-09-19T06:18:55;24.80;79.80
65462;DHT22;53236;43.666;18.444;2023-09-19T06:21:24;24.60;82.20
65462;DHT22;53236;43.666;18.444;2023-09-19T06:23:52;24.60;84.70
65462;DHT22;53236;43.666;18.444;2023-09-19T06:26:18;25.50;84.30
65462;DHT22;53236;43.666;18.444;2023-09-19T06:28:44;26.30;79.50
65462;DHT22;53236;43.666;18.444;2023-09-19T06:31:10;26.40;77.50
65462;DHT22;53236;43.666;18.444;2023-09-19T06:33:39;27.00;74.60
65462;DHT22;53236;43.666;18.444;2023-09-19T06:36:08;28.10;71.10
65462;DHT22;53236;43.666;18.444;2023-09-19T06:38:33;28.70;69.30
65462;DHT22;53236;43.666;18.444;2023-09-19T06:41:02;29.90;67.20
65462;DHT22;53236;43.666;18.444;2023-09-19T06:43:33;30.60;62.50
65462;DHT22;53236;43.666;18.444;2023-09-19T06:46:00;30.90;63.10
65462;DHT22;53236;43.666;18.444;2023-09-19T06:48:26;31.00;59.80
65462;DHT22;53236;43.666;18.444;2023-09-19T06:50:59;31.40;60.70
65462;DHT22;53236;43.666;18.444;2023-09-19T06:53:28;32.80;58.40
65462;DHT22;53236;43.666;18.444;2023-09-19T06:55:57;33.70;56.10
65462;DHT22;53236;43.666;18.444;2023-09-19T06:58:23;35.20;53.70
65462;DHT22;53236;43.666;18.444;2023-09-19T07:00:49;36.30;52.90
65462;DHT22;53236;43.666;18.444;2023-09-19T07:03:15;37.30;50.10
65462;DHT22;53236;43.666;18.444;2023-09-19T07:05:48;37.60;50.40
65462;DHT22;53236;43.666;18.444;2023-09-19T07:08:14;40.00;47.70
65462;DHT22;53236;43.666;18.444;2023-09-19T07:10:41;39.70;47.10
65462;DHT22;53236;43.666;18.444;2023-09-19T07:13:14;40.90;46.30
65462;DHT22;53236;43.666;18.444;2023-09-19T07:15:42;42.40;44.00
65462;DHT22;53236;43.666;18.444;2023-09-19T07:18:16;42.70;43.40
65462;DHT22;53236;43.666;18.444;2023-09-19T07:20:47;42.70;42.20
65462;DHT22;53236;43.666;18.444;2023-09-19T07:23:18;42.70;42.40
65462;DHT22;53236;43.666;18.444;2023-09-19T07:25:45;41.90;42.70
65462;DHT22;53236;43.666;18.444;2023-09-19T07:28:12;42.50;42.40
65462;DHT22;53236;43.666;18.444;2023-09-19T07:30:38;43.00;41.30
65462;DHT22;53236;43.666;18.444;2023-09-19T07:33:05;45.30;40.30
65462;DHT22;53236;43.666;18.444;2023-09-19T07:35:31;46.00;38.30
65462;DHT22;53236;43.666;18.444;2023-09-19T07:37:57;46.40;37.50
65462;DHT22;53236;43.666;18.444;2023-09-19T07:40:27;46.00;38.40
65462;DHT22;53236;43.666;18.444;2023-09-19T07:42:57;44.70;38.10
65462;DHT22;53236;43.666;18.444;2023-09-19T07:45:30;42.70;39.00
65462;DHT22;53236;43.666;18.444;2023-09-19T07:47:57;41.80;40.00
65462;DHT22;53236;43.666;18.444;2023-09-19T07:50:23;41.30;41.80
65462;DHT22;53236;43.666;18.444;2023-09-19T07:52:49;39.80;41.40
65462;DHT22;53236;43.666;18.444;2023-09-19T07:55:16;40.30;41.50
65462;DHT22;53236;43.666;18.444;2023-09-19T07:57:43;40.00;42.40
65462;DHT22;53236;43.666;18.444;2023-09-19T08:00:10;39.70;42.60
65462;DHT22;53236;43.666;18.444;2023-09-19T08:02:37;39.60;42.30
65462;DHT22;53236;43.666;18.444;2023-09-19T08:05:06;38.40;43.20
65462;DHT22;53236;43.666;18.444;2023-09-19T08:07:36;37.20;43.20
65462;DHT22;53236;43.666;18.444;2023-09-19T08:10:03;36.60;44.70
65462;DHT22;53236;43.666;18.444;2023-09-19T08:12:29;36.60;45.70
65462;DHT22;53236;43.666;18.444;2023-09-19T08:14:56;37.10;43.80
65462;DHT22;53236;43.666;18.444;2023-09-19T08:17:21;36.90;43.00
65462;DHT22;53236;43.666;18.444;2023-09-19T08:19:50;36.10;45.10
65462;DHT22;53236;43.666;18.444;2023-09-19T08:22:19;36.50;44.60
65462;DHT22;53236;43.666;18.444;2023-09-19T08:24:45;37.30;43.80
65462;DHT22;53236;43.666;18.444;2023-09-19T08:27:11;37.00;43.40
65462;DHT22;53236;43.666;18.444;2023-09-19T08:29:38;37.20;42.60
65462;DHT22;53236;43.666;18.444;2023-09-19T08:32:04;37.80;42.30
65462;DHT22;53236;43.666;18.444;2023-09-19T08:34:30;38.00;42.50
65462;DHT22;53236;43.666;18.444;2023-09-19T08:36:58;37.40;41.90
65462;DHT22;53236;43.666;18.444;2023-09-19T08:39:24;38.70;42.30
65462;DHT22;53236;43.666;18.444;2023-09-19T08:41:58;39.30;40.80
65462;DHT22;53236;43.666;18.444;2023-09-19T08:44:28;40.10;40.00
65462;DHT22;53236;43.666;18.444;2023-09-19T08:47:19;40.40;39.30
65462;DHT22;53236;43.666;18.444;2023-09-19T08:52:24;38.40;40.40
65462;DHT22;53236;43.666;18.444;2023-09-19T08:54:58;38.20;40.80
65462;DHT22;53236;43.666;18.444;2023-09-19T08:57:29;38.10;40.30
65462;DHT22;53236;43.666;18.444;2023-09-19T08:59:55;38.70;40.90
65462;DHT22;53236;43.666;18.444;2023-09-19T09:02:22;40.30;40.20
65462;DHT22;53236;43.666;18.444;2023-09-19T09:04:49;40.50;39.60
65462;DHT22;53236;43.666;18.444;2023-09-19T09:07:16;39.60;38.80
65462;DHT22;53236;43.666;18.444;2023-09-19T09:09:44;40.30;39.30
65462;DHT22;53236;43.666;18.444;2023-09-19T09:12:14;41.80;38.80
65462;DHT22;53236;43.666;18.444;2023-09-19T09:14:44;41.70;39.00
65462;DHT22;53236;43.666;18.444;2023-09-19T09:17:10;42.70;38.20
65462;DHT22;53236;43.666;18.444;2023-09-19T09:19:37;44.40;38.30
65462;DHT22;53236;43.666;18.444;2023-09-19T09:22:11;46.00;37.10
65462;DHT22;53236;43.666;18.444;2023-09-19T09:24:52;46.50;35.50
65462;DHT22;53236;43.666;18.444;2023-09-19T09:27:20;46.20;35.40
65462;DHT22;53236;43.666;18.444;2023-09-19T09:29:48;45.90;35.10
65462;DHT22;53236;43.666;18.444;2023-09-19T09:32:24;44.80;34.70
65462;DHT22;53236;43.666;18.444;2023-09-19T09:34:52;43.50;35.90
65462;DHT22;53236;43.666;18.444;2023-09-19T09:37:19;41.70;37.40
65462;DHT22;53236;43.666;18.444;2023-09-19T09:40:11;40.30;37.60
65462;DHT22;53236;43.666;18.444;2023-09-19T09:42:40;38.00;39.80
65462;DHT22;53236;43.666;18.444;2023-09-19T09:45:20;37.10;42.00
65462;DHT22;53236;43.666;18.444;2023-09-19T09:48:01;36.90;41.90
65462;DHT22;53236;43.666;18.444;2023-09-19T09:50:47;37.20;42.20
65462;DHT22;53236;43.666;18.444;2023-09-19T09:53:28;37.00;41.80
65462;DHT22;53236;43.666;18.444;2023-09-19T09:58:26;34.90;43.90
65462;DHT22;53236;43.666;18.444;2023-09-19T10:00:55;34.50;44.10
65462;DHT22;53236;43.666;18.444;2023-09-19T10:03:37;34.60;45.10
65462;DHT22;53236;43.666;18.444;2023-09-19T10:06:13;34.60;44.60
65462;DHT22;53236;43.666;18.444;2023-09-19T10:09:02;34.70;44.60
65462;DHT22;53236;43.666;18.444;2023-09-19T10:11:41;34.20;45.00
65462;DHT22;53236;43.666;18.444;2023-09-19T10:14:13;33.60;46.30
65462;DHT22;53236;43.666;18.444;2023-09-19T10:16:49;33.20;47.40
65462;DHT22;53236;43.666;18.444;2023-09-19T10:22:05;33.70;48.10
65462;DHT22;53236;43.666;18.444;2023-09-19T10:24:35;33.70;45.80
65462;DHT22;53236;43.666;18.444;2023-09-19T10:27:05;33.50;46.50
65462;DHT22;53236;43.666;18.444;2023-09-19T10:29:35;33.20;47.60
65462;DHT22;53236;43.666;18.444;2023-09-19T10:32:03;33.30;46.30
65462;DHT22;53236;43.666;18.444;2023-09-19T10:34:35;32.40;46.60
65462;DHT22;53236;43.666;18.444;2023-09-19T10:37:02;32.00;48.10
65462;DHT22;53236;43.666;18.444;2023-09-19T10:39:32;31.90;49.90
65462;DHT22;53236;43.666;18.444;2023-09-19T10:42:02;31.50;48.90
65462;DHT22;53236;43.666;18.444;2023-09-19T10:44:32;31.00;49.70
65462;DHT22;53236;43.666;18.444;2023-09-19T10:46:58;31.10;49.70
65462;DHT22;53236;43.666;18.444;2023-09-19T10:49:24;30.90;50.40
65462;DHT22;53236;43.666;18.444;2023-09-19T10:51:57;31.00;48.40
65462;DHT22;53236;43.666;18.444;2023-09-19T10:54:31;30.90;48.80
65462;DHT22;53236;43.666;18.444;2023-09-19T10:56:58;30.90;48.40
65462;DHT22;53236;43.666;18.444;2023-09-19T10:59:25;30.80;49.60
65462;DHT22;53236;43.666;18.444;2023-09-19T11:01:55;30.60;49.60
65462;DHT22;53236;43.666;18.444;2023-09-19T11:12:12;30.80;49.90
65462;DHT22;53236;43.666;18.444;2023-09-19T11:14:40;30.80;51.20
65462;DHT22;53236;43.666;18.444;2023-09-19T11:22:23;31.40;48.40
65462;DHT22;53236;43.666;18.444;2023-09-19T11:24:52;31.20;47.80
65462;DHT22;53236;43.666;18.444;2023-09-19T11:27:21;31.40;50.40
65462;DHT22;53236;43.666;18.444;2023-09-19T11:29:47;31.10;48.30
65462;DHT22;53236;43.666;18.444;2023-09-19T11:32:14;31.20;47.30
65462;DHT22;53236;43.666;18.444;2023-09-19T11:34:44;31.20;46.90
65462;DHT22;53236;43.666;18.444;2023-09-19T11:40:07;30.90;48.00
65462;DHT22;53236;43.666;18.444;2023-09-19T11:42:43;30.80;48.20
65462;DHT22;53236;43.666;18.444;2023-09-19T11:48:18;30.60;48.10
65462;DHT22;53236;43.666;18.444;2023-09-19T11:50:45;30.40;47.50
65462;DHT22;53236;43.666;18.444;2023-09-19T11:53:12;30.40;48.20
65462;DHT22;53236;43.666;18.444;2023-09-19T11:55:39;30.30;49.00
65462;DHT22;53236;43.666;18.444;2023-09-19T11:58:07;30.30;48.60
65462;DHT22;53236;43.666;18.444;2023-09-19T12:00:37;30.10;48.00
65462;DHT22;53236;43.666;18.444;2023-09-19T12:03:08;30.10;48.90
65462;DHT22;53236;43.666;18.444;2023-09-19T12:05:39;30.60;48.40
65462;DHT22;53236;43.666;18.444;2023-09-19T12:08:05;31.00;48.00
65462;DHT22;53236;43.666;18.444;2023-09-19T12:10:47;31.10;45.10
65462;DHT22;53236;43.666;18.444;2023-09-19T12:13:18;31.30;47.60
65462;DHT22;53236;43.666;18.444;2023-09-19T12:15:44;31.30;46.50
65462;DHT22;53236;43.666;18.444;2023-09-19T12:18:29;31.10;44.20
65462;DHT22;53236;43.666;18.444;2023-09-19T12:20:55;30.50;45.30
65462;DHT22;53236;43.666;18.444;2023-09-19T12:23:23;30.20;44.80
65462;DHT22;53236;43.666;18.444;2023-09-19T12:25:49;30.10;45.50
65462;DHT22;53236;43.666;18.444;2023-09-19T12:28:18;29.70;45.30
65462;DHT22;53236;43.666;18.444;2023-09-19T12:30:43;29.80;46.20
65462;DHT22;53236;43.666;18.444;2023-09-19T12:33:19;29.70;46.20
65462;DHT22;53236;43.666;18.444;2023-09-19T12:35:46;29.70;45.80
65462;DHT22;53236;43.666;18.444;2023-09-19T12:38:23;29.30;46.80
65462;DHT22;53236;43.666;18.444;2023-09-19T12:40:50;29.10;47.90
65462;DHT22;53236;43.666;18.444;2023-09-19T12:43:18;28.90;48.00
65462;DHT22;53236;43.666;18.444;2023-09-19T12:45:43;28.90;47.10
65462;DHT22;53236;43.666;18.444;2023-09-19T12:48:20;28.90;47.10
65462;DHT22;53236;43.666;18.444;2023-09-19T12:51:00;28.90;47.30
65462;DHT22;53236;43.666;18.444;2023-09-19T12:53:37;29.00;48.40
65462;DHT22;53236;43.666;18.444;2023-09-19T12:56:14;29.10;48.10
65462;DHT22;53236;43.666;18.444;2023-09-19T12:58:58;29.20;47.80
65462;DHT22;53236;43.666;18.444;2023-09-19T13:01:29;29.30;47.90
65462;DHT22;53236;43.666;18.444;2023-09-19T13:04:13;29.20;48.00
65462;DHT22;53236;43.666;18.444;2023-09-19T13:06:44;29.10;48.30
65462;DHT22;53236;43.666;18.444;2023-09-19T13:09:11;28.90;48.10
65462;DHT22;53236;43.666;18.444;2023-09-19T13:11:38;28.90;48.50
65462;DHT22;53236;43.666;18.444;2023-09-19T13:14:16;28.90;48.10
65462;DHT22;53236;43.666;18.444;2023-09-19T13:17:04;29.00;47.90
65462;DHT22;53236;43.666;18.444;2023-09-19T13:19:48;29.00;47.90
65462;DHT22;53236;43.666;18.444;2023-09-19T13:25:14;29.10;49.00
65462;DHT22;53236;43.666;18.444;2023-09-19T13:27:43;29.20;49.10
65462;DHT22;53236;43.666;18.444;2023-09-19T13:30:10;29.20;47.70
65462;DHT22;53236;43.666;18.444;2023-09-19T13:32:36;29.40;47.00
65462;DHT22;53236;43.666;18.444;2023-09-19T13:35:04;29.50;46.70
65462;DHT22;53236;43.666;18.444;2023-09-19T13:37:32;29.60;46.80
65462;DHT22;53236;43.666;18.444;2023-09-19T13:39:59;29.60;46.40
65462;DHT22;53236;43.666;18.444;2023-09-19T13:42:25;29.70;46.90
65462;DHT22;53236;43.666;18.444;2023-09-19T13:44:53;29.80;46.50
65462;DHT22;53236;43.666;18.444;2023-09-19T13:47:19;29.80;47.40
65462;DHT22;53236;43.666;18.444;2023-09-19T13:49:50;29.30;47.50
65462;DHT22;53236;43.666;18.444;2023-09-19T13:52:19;29.10;48.30
65462;DHT22;53236;43.666;18.444;2023-09-19T13:54:44;28.90;48.40
65462;DHT22;53236;43.666;18.444;2023-09-19T13:57:10;28.90;48.30
65462;DHT22;53236;43.666;18.444;2023-09-19T13:59:36;28.60;48.10
65462;DHT22;53236;43.666;18.444;2023-09-19T14:02:02;28.60;49.10
65462;DHT22;53236;43.666;18.444;2023-09-19T14:04:31;28.50;49.90
65462;DHT22;53236;43.666;18.444;2023-09-19T14:06:57;28.30;49.70
65462;DHT22;53236;43.666;18.444;2023-09-19T14:09:24;28.10;50.00
65462;DHT22;53236;43.666;18.444;2023-09-19T14:11:50;28.00;50.50
65462;DHT22;53236;43.666;18.444;2023-09-19T14:14:21;28.10;50.90
65462;DHT22;53236;43.666;18.444;2023-09-19T14:16:49;27.90;50.60
65462;DHT22;53236;43.666;18.444;2023-09-19T14:19:15;27.80;50.60
65462;DHT22;53236;43.666;18.444;2023-09-19T14:21:42;27.80;51.10
65462;DHT22;53236;43.666;18.444;2023-09-19T14:24:08;27.80;51.00
65462;DHT22;53236;43.666;18.444;2023-09-19T14:26:35;27.90;51.00
65462;DHT22;53236;43.666;18.444;2023-09-19T14:29:01;27.80;52.20
65462;DHT22;53236;43.666;18.444;2023-09-19T14:31:28;27.80;51.20
65462;DHT22;53236;43.666;18.444;2023-09-19T14:33:54;27.80;52.10
65462;DHT22;53236;43.666;18.444;2023-09-19T14:36:22;27.80;52.10
65462;DHT22;53236;43.666;18.444;2023-09-19T14:38:52;27.70;51.60
65462;DHT22;53236;43.666;18.444;2023-09-19T14:41:23;27.70;52.10
65462;DHT22;53236;43.666;18.444;2023-09-19T14:43:51;27.80;52.00
65462;DHT22;53236;43.666;18.444;2023-09-19T14:46:17;27.50;52.40
65462;DHT22;53236;43.666;18.444;2023-09-19T14:48:44;27.30;51.70
65462;DHT22;53236;43.666;18.444;2023-09-19T14:51:13;27.10;51.60
65462;DHT22;53236;43.666;18.444;2023-09-19T14:53:42;27.00;52.00
65462;DHT22;53236;43.666;18.444;2023-09-19T14:56:09;26.80;52.70
65462;DHT22;53236;43.666;18.444;2023-09-19T14:58:36;26.80;52.30
65462;DHT22;53236;43.666;18.444;2023-09-19T15:01:07;26.70;54.10
65462;DHT22;53236;43.666;18.444;2023-09-19T15:03:34;26.70;53.90
65462;DHT22;53236;43.666;18.444;2023-09-19T15:06:11;26.60;53.50
65462;DHT22;53236;43.666;18.444;2023-09-19T15:08:41;26.50;54.10
65462;DHT22;53236;43.666;18.444;2023-09-19T15:11:18;26.60;53.10
65462;DHT22;53236;43.666;18.444;2023-09-19T15:13:46;26.60;53.40
65462;DHT22;53236;43.666;18.444;2023-09-19T15:16:13;26.60;55.20
65462;DHT22;53236;43.666;18.444;2023-09-19T15:18:44;26.60;55.00
65462;DHT22;53236;43.666;18.444;2023-09-19T15:21:13;26.60;53.70
65462;DHT22;53236;43.666;18.444;2023-09-19T15:23:41;26.50;53.70
65462;DHT22;53236;43.666;18.444;2023-09-19T15:26:09;26.60;55.00
65462;DHT22;53236;43.666;18.444;2023-09-19T15:28:37;26.30;55.70
65462;DHT22;53236;43.666;18.444;2023-09-19T15:31:12;26.20;56.40
65462;DHT22;53236;43.666;18.444;2023-09-19T15:33:39;26.10;57.60
65462;DHT22;53236;43.666;18.444;2023-09-19T15:36:15;26.10;58.90
65462;DHT22;53236;43.666;18.444;2023-09-19T15:39:01;26.00;58.20
65462;DHT22;53236;43.666;18.444;2023-09-19T15:41:37;25.90;58.70
65462;DHT22;53236;43.666;18.444;2023-09-19T15:44:04;25.90;59.10
65462;DHT22;53236;43.666;18.444;2023-09-19T15:46:31;25.70;59.50
65462;DHT22;53236;43.666;18.444;2023-09-19T15:49:01;25.60;59.70
65462;DHT22;53236;43.666;18.444;2023-09-19T15:51:27;25.40;59.10
65462;DHT22;53236;43.666;18.444;2023-09-19T15:53:54;25.20;59.20
65462;DHT22;53236;43.666;18.444;2023-09-19T15:56:22;25.00;59.60
65462;DHT22;53236;43.666;18.444;2023-09-19T15:58:54;24.80;61.10
65462;DHT22;53236;43.666;18.444;2023-09-19T16:01:21;24.60;62.90
65462;DHT22;53236;43.666;18.444;2023-09-19T16:03:49;24.40;63.60
65462;DHT22;53236;43.666;18.444;2023-09-19T16:06:19;24.10;66.00
65462;DHT22;53236;43.666;18.444;2023-09-19T16:08:49;23.70;68.10
65462;DHT22;53236;43.666;18.444;2023-09-19T16:11:16;23.60;68.20